Aegean Orion — SVA2487 — position and weather

sailwx.info

Track history (hours):
 
Tides and Currents Weather Stations Pressure Air Temp Water Temp Dewpoint Dewpoint Depression Visibility Wind Speed Wind Dir Waves Ship Positions

Aegean Orion

Last reported at 2017-Jan-17 20:33 UTC. Time now 2017-Jan-17 21:23 UTC.
Position N 37°57' E 023°34'.

; draft 2.4 m.

Type: Ship. MMSI: 239550200.

Date/timePositionNaut miles runAvg speedWind from/ knotsBaromVisibWave heightAir tempDewpointWater temp
2017-Jan-17 20:33N 37°57' E 023°34'0 0.0
2017-Jan-17 19:33N 37°57' E 023°34'0 0.0
2017-Jan-17 18:33N 37°57' E 023°34'0 0.0
2017-Jan-17 17:33N 37°57' E 023°34'0 0.0
2017-Jan-17 16:33N 37°57' E 023°34'0 0.0
2017-Jan-17 15:33N 37°57' E 023°34'5 5.3
2017-Jan-17 14:34N 38°02' E 023°32'0 0.0
2017-Jan-17 13:33N 38°02' E 023°32'0 0.0
2017-Jan-17 12:33N 38°02' E 023°32'1 1.0
2017-Jan-17 11:33N 38°02' E 023°31'0 0.0
2017-Jan-17 10:34N 38°02' E 023°31'0 0.0
2017-Jan-17 09:33N 38°02' E 023°31'0 0.0
2017-Jan-17 08:33N 38°02' E 023°31'0 0.0
2017-Jan-17 07:33N 38°02' E 023°31'4 3.6
2017-Jan-17 06:33N 37°59' E 023°33'2 2.0
2017-Jan-17 05:33N 37°57' E 023°34'0 0.2
2017-Jan-17 04:34N 37°57' E 023°34'0 0.0
2017-Jan-17 03:34N 37°57' E 023°34'0 0.0
2017-Jan-17 02:33N 37°57' E 023°34'0 0.0
2017-Jan-17 01:33N 37°57' E 023°34'0 0.0
2017-Jan-17 00:33N 37°57' E 023°34'0 0.0
2017-Jan-16 23:33N 37°57' E 023°34'0 0.0
2017-Jan-16 22:33N 37°57' E 023°34'0 0.1
2017-Jan-16 21:34N 37°57' E 023°34'0 0.0
2017-Jan-16 20:33N 37°57' E 023°34'3 1.3
2017-Jan-16 18:04N 37°57' E 023°38'3 5.7
2017-Jan-16 17:33N 37°57' E 023°35'0 0.5
2017-Jan-16 16:33N 37°57' E 023°34'1 1.5
2017-Jan-16 15:33N 37°58' E 023°33'4 3.9
2017-Jan-16 14:33N 38°02' E 023°32'0 0.0
2017-Jan-14 15:31N 38°02' E 023°32'5 5.3
2017-Jan-14 14:34N 37°57' E 023°34'3 3.1
2017-Jan-14 13:34N 37°56' E 023°37'0 0.0
2017-Jan-14 12:33N 37°56' E 023°37'0 0.0
2017-Jan-14 11:34N 37°56' E 023°37'3 3.2
2017-Jan-14 10:34N 37°57' E 023°34'5 5.1
2017-Jan-14 09:34N 38°02' E 023°32'0 0.0
2017-Jan-13 11:34N 38°02' E 023°32'1 0.9
2017-Jan-13 10:33N 38°02' E 023°31'0 0.0
2017-Jan-13 09:33N 38°02' E 023°31'0 0.0
2017-Jan-13 08:34N 38°02' E 023°31'0 0.0
2017-Jan-13 07:34N 38°02' E 023°31'0 0.3
2017-Jan-13 06:33N 38°02' E 023°31'1 0.8
2017-Jan-13 05:34N 38°02' E 023°32'0 0.0
2017-Jan-12 16:07N 38°02' E 023°32'3 5.7
2017-Jan-12 15:33N 37°59' E 023°33'5 4.9
2017-Jan-12 14:33N 37°57' E 023°38'0 0.0
2017-Jan-12 13:33N 37°57' E 023°38'2 2.0
2017-Jan-12 12:33N 37°57' E 023°36'6 6.0
2017-Jan-12 11:33N 38°02' E 023°32'0 0.2
2017-Jan-12 10:33N 38°02' E 023°32'0 0.1
2017-Jan-12 09:33N 38°02' E 023°32'0 0.1
2017-Jan-12 08:33N 38°02' E 023°32'0 0.1
2017-Jan-12 07:34N 38°02' E 023°32'5 4.8
2017-Jan-12 06:33N 37°57' E 023°34'0 0.0
2017-Jan-12 05:33N 37°57' E 023°34'0 0.0
2017-Jan-12 04:34N 37°57' E 023°34'0 0.0
2017-Jan-12 03:33N 37°57' E 023°34'0 0.0
2017-Jan-12 02:33N 37°57' E 023°34'0 0.0
2017-Jan-12 01:34N 37°57' E 023°34'0 0.0
2017-Jan-12 00:33N 37°57' E 023°34'3 3.4
2017-Jan-11 23:33N 37°57' E 023°38'0 0.0
2017-Jan-11 22:33N 37°57' E 023°38'1 0.7
2017-Jan-11 21:33N 37°56' E 023°38'3 3.0
2017-Jan-11 20:33N 37°57' E 023°34'0 0.0
2017-Jan-11 19:33N 37°57' E 023°34'0 0.0
2017-Jan-11 18:33N 37°57' E 023°34'0 0.0
2017-Jan-11 17:33N 37°57' E 023°34'0 0.1
2017-Jan-11 16:33N 37°57' E 023°34'0 0.1
2017-Jan-11 15:33N 37°57' E 023°34'4 3.9
2017-Jan-11 14:33N 38°01' E 023°34'1 1.1
2017-Jan-11 13:33N 38°02' E 023°35'0 0.0
2017-Jan-11 12:33N 38°02' E 023°35'0 0.0
2017-Jan-11 11:33N 38°02' E 023°35'1 0.6
2017-Jan-11 10:33N 38°02' E 023°35'2 2.2
2017-Jan-11 09:33N 38°02' E 023°32'0 0.0
2017-Jan-11 08:33N 38°02' E 023°32'0 0.0
2017-Jan-11 07:33N 38°02' E 023°32'0 0.0
2017-Jan-09 21:30N 38°02' E 023°32'4 4.7
2017-Jan-09 20:33N 37°58' E 023°33'5 4.5
2017-Jan-09 19:33N 37°57' E 023°38'0 0.0
2017-Jan-09 18:33N 37°57' E 023°38'2 2.4
2017-Jan-09 17:34N 37°57' E 023°35'1 0.9
2017-Jan-09 16:33N 37°57' E 023°34'0 0.0
2017-Jan-09 15:34N 37°57' E 023°34'3 3.3
2017-Jan-09 14:34N 37°57' E 023°38'0 0.0
2017-Jan-09 13:33N 37°57' E 023°38'3 2.8
2017-Jan-09 12:34N 37°57' E 023°35'5 5.0
2017-Jan-09 11:33N 38°02' E 023°35'0 0.0
2017-Jan-09 10:33N 38°02' E 023°35'0 0.0
2017-Jan-09 09:33N 38°02' E 023°35'0 0.0
2017-Jan-09 08:33N 38°02' E 023°35'0 0.3
2017-Jan-09 07:33N 38°02' E 023°35'  
Track history (hours):
 
Tides and Currents Weather Stations Pressure Air Temp Water Temp Dewpoint Dewpoint Depression Visibility Wind Speed Wind Dir Waves Ship Positions

Aegean Orion

Last reported at 2017-Jan-17 20:33 UTC. Time now 2017-Jan-17 21:23 UTC.
Position N 37°57' E 023°34'.

; draft 2.4 m.

Type: Ship. MMSI: 239550200.

Date/timePositionNaut miles runAvg speedWind from/ knotsBaromVisibWave heightAir tempDewpointWater temp
2017-Jan-17 20:33N 37°57' E 023°34'0 0.0
2017-Jan-17 19:33N 37°57' E 023°34'0 0.0
2017-Jan-17 18:33N 37°57' E 023°34'0 0.0
2017-Jan-17 17:33N 37°57' E 023°34'0 0.0
2017-Jan-17 16:33N 37°57' E 023°34'0 0.0
2017-Jan-17 15:33N 37°57' E 023°34'5 5.3
2017-Jan-17 14:34N 38°02' E 023°32'0 0.0
2017-Jan-17 13:33N 38°02' E 023°32'0 0.0
2017-Jan-17 12:33N 38°02' E 023°32'1 1.0
2017-Jan-17 11:33N 38°02' E 023°31'0 0.0
2017-Jan-17 10:34N 38°02' E 023°31'0 0.0
2017-Jan-17 09:33N 38°02' E 023°31'0 0.0
2017-Jan-17 08:33N 38°02' E 023°31'0 0.0
2017-Jan-17 07:33N 38°02' E 023°31'4 3.6
2017-Jan-17 06:33N 37°59' E 023°33'2 2.0
2017-Jan-17 05:33N 37°57' E 023°34'0 0.2
2017-Jan-17 04:34N 37°57' E 023°34'0 0.0
2017-Jan-17 03:34N 37°57' E 023°34'0 0.0
2017-Jan-17 02:33N 37°57' E 023°34'0 0.0
2017-Jan-17 01:33N 37°57' E 023°34'0 0.0
2017-Jan-17 00:33N 37°57' E 023°34'0 0.0
2017-Jan-16 23:33N 37°57' E 023°34'0 0.0
2017-Jan-16 22:33N 37°57' E 023°34'0 0.1
2017-Jan-16 21:34N 37°57' E 023°34'0 0.0
2017-Jan-16 20:33N 37°57' E 023°34'3 1.3
2017-Jan-16 18:04N 37°57' E 023°38'3 5.7
2017-Jan-16 17:33N 37°57' E 023°35'0 0.5
2017-Jan-16 16:33N 37°57' E 023°34'1 1.5
2017-Jan-16 15:33N 37°58' E 023°33'4 3.9
2017-Jan-16 14:33N 38°02' E 023°32'0 0.0
2017-Jan-14 15:31N 38°02' E 023°32'5 5.3
2017-Jan-14 14:34N 37°57' E 023°34'3 3.1
2017-Jan-14 13:34N 37°56' E 023°37'0 0.0
2017-Jan-14 12:33N 37°56' E 023°37'0 0.0
2017-Jan-14 11:34N 37°56' E 023°37'3 3.2
2017-Jan-14 10:34N 37°57' E 023°34'5 5.1
2017-Jan-14 09:34N 38°02' E 023°32'0 0.0
2017-Jan-13 11:34N 38°02' E 023°32'1 0.9
2017-Jan-13 10:33N 38°02' E 023°31'0 0.0
2017-Jan-13 09:33N 38°02' E 023°31'0 0.0
2017-Jan-13 08:34N 38°02' E 023°31'0 0.0
2017-Jan-13 07:34N 38°02' E 023°31'0 0.3
2017-Jan-13 06:33N 38°02' E 023°31'1 0.8
2017-Jan-13 05:34N 38°02' E 023°32'0 0.0
2017-Jan-12 16:07N 38°02' E 023°32'3 5.7
2017-Jan-12 15:33N 37°59' E 023°33'5 4.9
2017-Jan-12 14:33N 37°57' E 023°38'0 0.0
2017-Jan-12 13:33N 37°57' E 023°38'2 2.0
2017-Jan-12 12:33N 37°57' E 023°36'6 6.0
2017-Jan-12 11:33N 38°02' E 023°32'0 0.2
2017-Jan-12 10:33N 38°02' E 023°32'0 0.1
2017-Jan-12 09:33N 38°02' E 023°32'0 0.1
2017-Jan-12 08:33N 38°02' E 023°32'0 0.1
2017-Jan-12 07:34N 38°02' E 023°32'5 4.8
2017-Jan-12 06:33N 37°57' E 023°34'0 0.0
2017-Jan-12 05:33N 37°57' E 023°34'0 0.0
2017-Jan-12 04:34N 37°57' E 023°34'0 0.0
2017-Jan-12 03:33N 37°57' E 023°34'0 0.0
2017-Jan-12 02:33N 37°57' E 023°34'0 0.0
2017-Jan-12 01:34N 37°57' E 023°34'0 0.0
2017-Jan-12 00:33N 37°57' E 023°34'3 3.4
2017-Jan-11 23:33N 37°57' E 023°38'0 0.0
2017-Jan-11 22:33N 37°57' E 023°38'1 0.7
2017-Jan-11 21:33N 37°56' E 023°38'3 3.0
2017-Jan-11 20:33N 37°57' E 023°34'0 0.0
2017-Jan-11 19:33N 37°57' E 023°34'0 0.0
2017-Jan-11 18:33N 37°57' E 023°34'0 0.0
2017-Jan-11 17:33N 37°57' E 023°34'0 0.1
2017-Jan-11 16:33N 37°57' E 023°34'0 0.1
2017-Jan-11 15:33N 37°57' E 023°34'4 3.9
2017-Jan-11 14:33N 38°01' E 023°34'1 1.1
2017-Jan-11 13:33N 38°02' E 023°35'0 0.0
2017-Jan-11 12:33N 38°02' E 023°35'0 0.0
2017-Jan-11 11:33N 38°02' E 023°35'1 0.6
2017-Jan-11 10:33N 38°02' E 023°35'2 2.2
2017-Jan-11 09:33N 38°02' E 023°32'0 0.0
2017-Jan-11 08:33N 38°02' E 023°32'0 0.0
2017-Jan-11 07:33N 38°02' E 023°32'0 0.0
2017-Jan-09 21:30N 38°02' E 023°32'4 4.7
2017-Jan-09 20:33N 37°58' E 023°33'5 4.5
2017-Jan-09 19:33N 37°57' E 023°38'0 0.0
2017-Jan-09 18:33N 37°57' E 023°38'2 2.4
2017-Jan-09 17:34N 37°57' E 023°35'1 0.9
2017-Jan-09 16:33N 37°57' E 023°34'0 0.0
2017-Jan-09 15:34N 37°57' E 023°34'3 3.3
2017-Jan-09 14:34N 37°57' E 023°38'0 0.0
2017-Jan-09 13:33N 37°57' E 023°38'3 2.8
2017-Jan-09 12:34N 37°57' E 023°35'5 5.0
2017-Jan-09 11:33N 38°02' E 023°35'0 0.0
2017-Jan-09 10:33N 38°02' E 023°35'0 0.0
2017-Jan-09 09:33N 38°02' E 023°35'0 0.0
2017-Jan-09 08:33N 38°02' E 023°35'0 0.3
2017-Jan-09 07:33N 38°02' E 023°35'  

Dump ship's entire track history